createdAt,value
2022-10-31T00:01:39.658Z,14.62
2022-10-31T00:04:07.546Z,14.59
2022-10-31T00:06:34.845Z,14.57
2022-10-31T00:09:05.069Z,14.53
2022-10-31T00:11:32.556Z,14.59
2022-10-31T00:14:00.830Z,14.57
2022-10-31T00:16:29.494Z,14.63
2022-10-31T00:19:03.855Z,14.60
2022-10-31T00:21:32.069Z,14.50
2022-10-31T00:24:01.124Z,14.48
2022-10-31T00:26:30.583Z,14.41
2022-10-31T00:28:59.831Z,14.42
2022-10-31T00:31:28.679Z,14.43
2022-10-31T00:33:56.626Z,14.43
2022-10-31T00:36:23.836Z,14.41
2022-10-31T00:38:51.187Z,14.32
2022-10-31T00:41:19.544Z,14.32
2022-10-31T00:43:47.280Z,14.31
2022-10-31T00:46:15.100Z,14.25
2022-10-31T00:48:43.499Z,14.18
2022-10-31T00:51:11.061Z,14.29
2022-10-31T00:53:38.433Z,14.25
2022-10-31T00:56:06.815Z,14.26
2022-10-31T00:58:34.215Z,14.25
2022-10-31T01:01:01.672Z,14.18
2022-10-31T01:03:32.672Z,14.19
2022-10-31T01:06:12.341Z,14.20
2022-10-31T01:08:41.063Z,14.23
2022-10-31T01:11:20.499Z,14.21
2022-10-31T01:13:52.525Z,14.17
2022-10-31T01:16:23.852Z,14.09
2022-10-31T01:18:52.600Z,14.13
2022-10-31T01:21:23.774Z,14.12
2022-10-31T01:23:54.287Z,14.15
2022-10-31T01:26:29.103Z,14.13
2022-10-31T01:29:03.009Z,14.17
2022-10-31T01:31:34.269Z,14.15
2022-10-31T01:34:02.215Z,14.19
2022-10-31T01:36:36.389Z,14.13
2022-10-31T01:39:14.836Z,14.11
2022-10-31T01:41:50.044Z,14.10
2022-10-31T01:44:17.424Z,14.04
2022-10-31T01:47:04.051Z,14.01
2022-10-31T01:49:50.221Z,14.00
2022-10-31T01:52:28.864Z,13.94
2022-10-31T01:55:30.343Z,13.92
2022-10-31T01:58:08.483Z,13.93
2022-10-31T02:00:36.089Z,13.90
2022-10-31T02:03:04.049Z,13.83
2022-10-31T02:05:33.977Z,13.79
2022-10-31T02:08:24.095Z,13.67
2022-10-31T02:10:51.524Z,13.63
2022-10-31T02:13:21.091Z,13.63
2022-10-31T02:15:53.552Z,13.60
2022-10-31T02:18:23.023Z,13.59
2022-10-31T02:21:16.752Z,13.54
2022-10-31T02:24:17.195Z,13.51
2022-10-31T02:27:08.582Z,13.54
2022-10-31T02:29:55.059Z,13.44
2022-10-31T02:32:49.961Z,13.42
2022-10-31T02:35:47.758Z,13.42
2022-10-31T02:38:39.725Z,13.44
2022-10-31T02:41:43.623Z,13.37
2022-10-31T02:44:38.089Z,13.37
2022-10-31T02:47:12.762Z,13.37
2022-10-31T02:50:03.628Z,13.35
2022-10-31T02:52:34.347Z,13.39
2022-10-31T02:55:36.579Z,13.37
2022-10-31T02:58:14.544Z,13.40
2022-10-31T03:01:09.414Z,13.38
2022-10-31T03:04:02.573Z,13.40
2022-10-31T03:06:53.471Z,13.41
2022-10-31T03:09:46.710Z,13.39
2022-10-31T03:12:31.206Z,13.43
2022-10-31T03:15:13.457Z,13.43
2022-10-31T03:17:59.670Z,13.44
2022-10-31T03:20:37.565Z,13.43
2022-10-31T03:23:12.581Z,13.39
2022-10-31T03:25:42.964Z,13.40
2022-10-31T03:28:13.973Z,13.43
2022-10-31T03:30:46.368Z,13.32
2022-10-31T03:33:25.668Z,13.32
2022-10-31T03:35:59.027Z,13.25
2022-10-31T03:38:28.476Z,13.24
2022-10-31T03:41:01.037Z,13.22
2022-10-31T03:43:39.161Z,13.18
2022-10-31T03:46:07.167Z,13.17
2022-10-31T03:48:35.347Z,13.08
2022-10-31T03:51:37.072Z,13.06
2022-10-31T03:54:14.800Z,13.02
2022-10-31T03:56:49.752Z,12.98
2022-10-31T03:59:27.216Z,12.95
2022-10-31T04:02:02.006Z,12.94
2022-10-31T04:04:31.609Z,12.90
2022-10-31T04:07:02.797Z,12.88
2022-10-31T04:09:36.125Z,12.85
2022-10-31T04:12:09.878Z,12.85
2022-10-31T04:14:41.429Z,12.85
2022-10-31T04:17:15.723Z,12.87
2022-10-31T04:19:43.248Z,12.89
2022-10-31T04:22:10.649Z,12.87
2022-10-31T04:24:41.586Z,12.86
2022-10-31T04:27:09.190Z,12.85
2022-10-31T04:29:36.624Z,12.79
2022-10-31T04:32:04.191Z,12.77
2022-10-31T04:34:31.531Z,12.72
2022-10-31T04:36:58.705Z,12.70
2022-10-31T04:39:26.860Z,12.72
2022-10-31T04:41:54.327Z,12.71
2022-10-31T04:44:21.747Z,12.67
2022-10-31T04:46:48.918Z,12.67
2022-10-31T04:49:16.235Z,12.67
2022-10-31T04:51:43.385Z,12.62
2022-10-31T04:54:10.762Z,12.60
2022-10-31T04:56:37.925Z,12.56
2022-10-31T04:59:05.277Z,12.54
2022-10-31T05:01:32.709Z,12.52
2022-10-31T05:04:00.094Z,12.53
2022-10-31T05:06:27.331Z,12.43
2022-10-31T05:08:54.808Z,12.49
2022-10-31T05:11:21.952Z,12.47
2022-10-31T05:13:49.379Z,12.44
2022-10-31T05:16:16.539Z,12.42
2022-10-31T05:18:43.710Z,12.41
2022-10-31T05:21:11.170Z,12.46
2022-10-31T05:23:38.355Z,12.47
2022-10-31T05:26:05.987Z,12.46
2022-10-31T05:28:33.189Z,12.44
2022-10-31T05:31:00.614Z,12.46
2022-10-31T05:33:27.843Z,12.46
2022-10-31T05:35:55.333Z,12.44
2022-10-31T05:38:22.524Z,12.44
2022-10-31T05:40:49.899Z,12.47
2022-10-31T05:43:17.034Z,12.44
2022-10-31T05:45:44.371Z,12.48
2022-10-31T05:48:11.790Z,12.53
2022-10-31T05:50:39.146Z,12.51
2022-10-31T05:53:07.052Z,12.58
2022-10-31T05:55:34.515Z,12.58
2022-10-31T05:58:02.178Z,12.62
2022-10-31T06:00:29.923Z,12.60
2022-10-31T06:03:07.007Z,12.61
2022-10-31T06:05:34.404Z,12.55
2022-10-31T06:08:02.472Z,12.54
2022-10-31T06:10:30.327Z,12.59
2022-10-31T06:12:58.155Z,12.67
2022-10-31T06:15:25.590Z,12.69
2022-10-31T06:18:02.608Z,12.74
2022-10-31T06:20:30.620Z,12.82
2022-10-31T06:22:58.139Z,12.86
2022-10-31T06:25:26.373Z,12.94
2022-10-31T06:27:53.640Z,13.00
2022-10-31T06:30:21.241Z,13.05
2022-10-31T06:32:48.419Z,13.07
2022-10-31T06:35:15.963Z,13.12
2022-10-31T06:37:44.472Z,13.16
2022-10-31T06:40:14.304Z,13.18
2022-10-31T06:42:41.452Z,13.22
2022-10-31T06:45:09.345Z,13.34
2022-10-31T06:47:50.846Z,13.42
2022-10-31T06:50:25.024Z,13.53
2022-10-31T06:52:59.238Z,13.60
2022-10-31T06:55:28.147Z,13.64
2022-10-31T06:58:01.884Z,13.78
2022-10-31T07:00:32.619Z,13.86
2022-10-31T07:03:03.288Z,14.01
2022-10-31T07:05:32.028Z,14.14
2022-10-31T07:08:06.436Z,14.23
2022-10-31T07:10:40.159Z,14.28
2022-10-31T07:13:14.174Z,14.40
2022-10-31T07:15:44.139Z,14.54
2022-10-31T07:18:13.567Z,14.70
2022-10-31T07:20:41.063Z,14.74
2022-10-31T07:23:11.805Z,14.83
2022-10-31T07:25:40.978Z,14.94
2022-10-31T07:28:08.627Z,14.99
2022-10-31T07:30:36.023Z,15.10
2022-10-31T07:33:03.867Z,15.19
2022-10-31T07:35:32.549Z,15.27
2022-10-31T07:38:09.880Z,15.35
2022-10-31T07:40:37.417Z,15.51
2022-10-31T07:43:07.627Z,15.64
2022-10-31T07:45:40.548Z,15.75
2022-10-31T07:48:07.911Z,15.83
2022-10-31T07:50:35.729Z,16.01
2022-10-31T07:53:12.960Z,16.28
2022-10-31T07:55:40.868Z,16.61
2022-10-31T07:58:10.949Z,17.05
2022-10-31T08:00:41.835Z,17.46
2022-10-31T08:03:13.580Z,19.12
2022-10-31T08:05:42.225Z,21.94
2022-10-31T08:08:10.460Z,24.36
2022-10-31T08:10:38.611Z,26.44
2022-10-31T08:13:10.147Z,28.11
2022-10-31T08:15:40.394Z,29.75
2022-10-31T08:18:15.752Z,31.10
2022-10-31T08:20:44.639Z,32.44
2022-10-31T08:23:13.624Z,33.66
2022-10-31T08:25:42.868Z,34.79
2022-10-31T08:28:12.466Z,35.65
2022-10-31T08:30:41.280Z,36.60
2022-10-31T08:33:14.669Z,37.39
2022-10-31T08:35:42.833Z,37.79
2022-10-31T08:38:12.949Z,38.11
2022-10-31T08:40:41.033Z,38.65
2022-10-31T08:43:16.777Z,39.19
2022-10-31T08:45:48.372Z,39.31
2022-10-31T08:48:18.276Z,39.90
2022-10-31T08:50:47.239Z,40.10
2022-10-31T08:53:20.196Z,40.78
2022-10-31T08:55:48.360Z,41.04
2022-10-31T08:58:20.903Z,41.79
2022-10-31T09:00:54.693Z,42.28
2022-10-31T09:03:28.941Z,42.93
2022-10-31T09:05:59.740Z,43.77
2022-10-31T09:08:27.424Z,44.38
2022-10-31T09:10:58.443Z,44.90
2022-10-31T09:13:28.098Z,44.97
2022-10-31T09:16:01.212Z,45.61
2022-10-31T09:18:32.929Z,45.97
2022-10-31T09:21:02.392Z,46.29
2022-10-31T09:23:29.719Z,47.14
2022-10-31T09:26:00.940Z,47.55
2022-10-31T09:28:28.388Z,47.87
2022-10-31T09:30:56.644Z,48.21
2022-10-31T09:33:24.364Z,48.38
2022-10-31T09:35:51.823Z,48.27
2022-10-31T09:38:22.042Z,48.66
2022-10-31T09:41:41.421Z,49.27
2022-10-31T09:44:40.006Z,49.95
2022-10-31T09:47:28.777Z,50.63
2022-10-31T09:50:27.280Z,50.86
2022-10-31T09:53:11.265Z,51.04
2022-10-31T09:55:43.151Z,51.11
2022-10-31T09:58:20.051Z,50.90
2022-10-31T10:00:49.467Z,51.19
2022-10-31T10:03:31.000Z,51.41
2022-10-31T10:06:24.398Z,51.34
2022-10-31T10:08:51.865Z,51.31
2022-10-31T10:11:45.414Z,51.85
2022-10-31T10:14:12.820Z,51.82
2022-10-31T10:17:38.329Z,51.19
2022-10-31T10:20:24.379Z,51.24
2022-10-31T10:23:44.373Z,52.09
2022-10-31T10:26:23.441Z,51.80
2022-10-31T10:29:03.490Z,51.70
2022-10-31T10:31:40.528Z,51.88
2022-10-31T10:34:07.671Z,52.01
2022-10-31T10:37:04.605Z,52.28
2022-10-31T10:39:39.151Z,52.35
2022-10-31T10:42:34.783Z,52.46
2022-10-31T10:45:38.214Z,52.03
2022-10-31T10:48:36.473Z,52.18
2022-10-31T10:51:16.020Z,53.03
2022-10-31T10:54:15.981Z,53.02
2022-10-31T10:57:09.648Z,53.03
2022-10-31T10:59:37.203Z,53.24
2022-10-31T11:02:18.733Z,51.98
2022-10-31T11:04:53.828Z,51.46
2022-10-31T11:07:21.898Z,51.29
2022-10-31T11:09:49.492Z,50.89
2022-10-31T11:12:46.323Z,50.91
2022-10-31T11:15:25.208Z,50.94
2022-10-31T11:17:56.529Z,50.81
2022-10-31T11:20:35.509Z,50.27
2022-10-31T11:23:24.480Z,50.81
2022-10-31T11:25:56.206Z,50.76
2022-10-31T11:28:24.662Z,51.25
2022-10-31T11:30:58.106Z,51.57
2022-10-31T11:33:37.730Z,51.34
2022-10-31T11:36:25.909Z,51.55
2022-10-31T11:38:55.169Z,52.09
2022-10-31T11:41:25.273Z,52.54
2022-10-31T11:44:01.671Z,52.70
2022-10-31T11:47:06.770Z,52.46
2022-10-31T11:49:42.162Z,52.86
2022-10-31T11:52:25.140Z,52.50
2022-10-31T11:55:11.232Z,53.33
2022-10-31T11:57:54.973Z,54.29
2022-10-31T12:03:22.968Z,53.25
2022-10-31T12:06:14.281Z,52.27
2022-10-31T12:08:43.327Z,52.85
2022-10-31T12:11:46.960Z,53.13
2022-10-31T12:14:37.390Z,53.31
2022-10-31T12:17:18.091Z,53.10
2022-10-31T12:20:45.340Z,52.86
2022-10-31T12:23:51.271Z,52.93
2022-10-31T12:26:31.673Z,52.73
2022-10-31T12:29:19.955Z,52.46
2022-10-31T12:32:25.600Z,53.30
2022-10-31T12:35:10.668Z,52.68
2022-10-31T12:37:49.512Z,52.66
2022-10-31T12:40:52.354Z,52.45
2022-10-31T12:43:50.387Z,52.78
2022-10-31T12:46:58.260Z,52.18
2022-10-31T12:49:55.310Z,51.71
2022-10-31T12:52:35.131Z,52.06
2022-10-31T12:55:20.595Z,52.10
2022-10-31T12:57:55.034Z,51.75
2022-10-31T13:00:25.318Z,50.91
2022-10-31T13:03:47.562Z,50.70
2022-10-31T13:06:28.557Z,50.88
2022-10-31T13:09:02.646Z,50.94
2022-10-31T13:11:41.119Z,50.58
2022-10-31T13:14:29.862Z,50.21
2022-10-31T13:16:58.445Z,49.93
2022-10-31T13:19:42.685Z,49.55
2022-10-31T13:22:36.681Z,49.63
2022-10-31T13:25:24.375Z,49.89
2022-10-31T13:28:01.071Z,50.06
2022-10-31T13:30:39.532Z,50.06
2022-10-31T13:33:34.073Z,49.19
2022-10-31T13:36:33.787Z,49.21
2022-10-31T13:39:24.479Z,49.06
2022-10-31T13:41:59.290Z,49.26
2022-10-31T13:44:40.224Z,48.95
2022-10-31T13:47:28.995Z,48.51
2022-10-31T13:50:29.623Z,48.13
2022-10-31T13:53:22.446Z,48.12
2022-10-31T13:56:12.520Z,48.14
2022-10-31T13:58:41.854Z,48.15
2022-10-31T14:01:23.041Z,47.59
2022-10-31T14:04:14.080Z,47.32
2022-10-31T14:07:08.806Z,47.38
2022-10-31T14:09:58.789Z,46.78
2022-10-31T14:12:44.085Z,46.39
2022-10-31T14:15:19.306Z,45.56
2022-10-31T14:17:54.448Z,44.61
2022-10-31T14:20:33.925Z,44.46
2022-10-31T14:23:31.236Z,44.21
2022-10-31T14:26:25.185Z,43.51
2022-10-31T14:28:55.378Z,42.71
2022-10-31T14:31:39.146Z,41.78
2022-10-31T14:34:43.897Z,40.82
2022-10-31T14:38:02.384Z,39.96
2022-10-31T14:41:15.562Z,38.96
2022-10-31T14:44:17.851Z,38.43
2022-10-31T14:46:55.989Z,37.74
2022-10-31T14:49:50.675Z,36.99
2022-10-31T14:52:20.254Z,36.36
2022-10-31T14:54:57.705Z,35.46
2022-10-31T14:57:37.696Z,34.43
2022-10-31T15:00:13.338Z,33.40
2022-10-31T15:03:13.454Z,32.20
2022-10-31T15:05:54.111Z,31.41
2022-10-31T15:08:48.547Z,30.61
2022-10-31T15:11:29.718Z,30.02
2022-10-31T15:14:01.019Z,29.47
2022-10-31T15:16:35.619Z,28.93
2022-10-31T15:19:11.185Z,28.45
2022-10-31T15:21:46.128Z,27.97
2022-10-31T15:24:17.037Z,27.63
2022-10-31T15:26:50.045Z,27.25
2022-10-31T15:29:24.950Z,26.86
2022-10-31T15:31:58.854Z,26.56
2022-10-31T15:34:44.179Z,26.23
2022-10-31T15:37:17.881Z,26.02
2022-10-31T15:39:47.929Z,25.80
2022-10-31T15:42:56.042Z,25.47
2022-10-31T15:45:27.996Z,25.28
2022-10-31T15:48:26.267Z,25.00
2022-10-31T15:50:58.741Z,24.87
2022-10-31T15:53:52.455Z,24.66
2022-10-31T15:56:33.048Z,24.48
2022-10-31T15:59:03.008Z,24.39
2022-10-31T16:01:34.585Z,24.24
2022-10-31T16:04:13.551Z,24.04
2022-10-31T16:06:41.011Z,23.95
2022-10-31T16:09:24.432Z,23.78
2022-10-31T16:11:52.380Z,23.70
2022-10-31T16:14:26.484Z,23.58
2022-10-31T16:16:59.814Z,23.40
2022-10-31T16:19:36.142Z,23.29
2022-10-31T16:22:20.184Z,23.16
2022-10-31T16:24:55.206Z,23.11
2022-10-31T16:27:31.124Z,23.00
2022-10-31T16:30:05.461Z,22.91
2022-10-31T16:33:00.267Z,22.72
2022-10-31T16:35:29.261Z,22.65
2022-10-31T16:37:56.810Z,22.54
2022-10-31T16:40:25.227Z,22.46
2022-10-31T16:42:53.376Z,22.37
2022-10-31T16:45:26.727Z,22.30
2022-10-31T16:47:54.612Z,22.23
2022-10-31T16:50:26.839Z,22.07
2022-10-31T16:53:12.792Z,22.03
2022-10-31T16:55:50.133Z,21.92
2022-10-31T16:58:29.112Z,21.81
2022-10-31T17:00:57.622Z,21.76
2022-10-31T17:03:25.329Z,21.64
2022-10-31T17:05:52.701Z,21.53
2022-10-31T17:08:20.075Z,21.42
2022-10-31T17:10:52.384Z,21.33
2022-10-31T17:13:25.421Z,21.20
2022-10-31T17:15:56.523Z,21.13
2022-10-31T17:18:27.709Z,21.01
2022-10-31T17:21:06.185Z,20.91
2022-10-31T17:23:34.162Z,20.90
2022-10-31T17:26:01.343Z,20.84
2022-10-31T17:28:28.770Z,20.76
2022-10-31T17:30:59.210Z,20.70
2022-10-31T17:33:27.076Z,20.63
2022-10-31T17:35:54.564Z,20.53
2022-10-31T17:38:22.003Z,20.47
2022-10-31T17:40:49.209Z,20.38
2022-10-31T17:43:16.857Z,20.30
2022-10-31T17:45:44.124Z,20.25
2022-10-31T17:48:17.688Z,20.14
2022-10-31T17:50:44.953Z,20.11
2022-10-31T17:53:12.362Z,20.06
2022-10-31T17:55:39.650Z,20.03
2022-10-31T17:58:08.429Z,19.97
2022-10-31T18:00:35.795Z,19.82
2022-10-31T18:03:04.636Z,19.65
2022-10-31T18:05:32.307Z,19.59
2022-10-31T18:08:03.656Z,19.56
2022-10-31T18:10:32.069Z,19.53
2022-10-31T18:12:59.772Z,19.51
2022-10-31T18:15:28.649Z,19.51
2022-10-31T18:17:56.186Z,19.44
2022-10-31T18:20:23.536Z,19.36
2022-10-31T18:22:50.998Z,19.30
2022-10-31T18:25:18.450Z,19.25
2022-10-31T18:27:45.976Z,19.20
2022-10-31T18:30:13.408Z,19.17
2022-10-31T18:32:40.895Z,19.13
2022-10-31T18:35:08.356Z,19.06
2022-10-31T18:37:35.851Z,19.01
2022-10-31T18:40:03.787Z,18.96
2022-10-31T18:42:32.412Z,18.92
2022-10-31T18:45:06.720Z,18.89
2022-10-31T18:48:02.887Z,18.79
2022-10-31T18:50:30.583Z,18.79
2022-10-31T18:52:58.327Z,18.75
2022-10-31T18:55:26.122Z,18.72
2022-10-31T18:57:53.603Z,18.71
2022-10-31T19:00:21.159Z,18.68
2022-10-31T19:02:48.706Z,18.62
2022-10-31T19:05:15.949Z,18.57
2022-10-31T19:07:43.614Z,18.55
2022-10-31T19:10:10.856Z,18.50
2022-10-31T19:12:38.362Z,18.44
2022-10-31T19:15:06.616Z,18.43
2022-10-31T19:17:34.136Z,18.40
2022-10-31T19:20:01.472Z,18.40
2022-10-31T19:22:32.260Z,18.38
2022-10-31T19:24:59.439Z,18.33
2022-10-31T19:27:28.205Z,18.27
2022-10-31T19:29:55.481Z,18.24
2022-10-31T19:32:22.987Z,18.18
2022-10-31T19:34:55.212Z,18.09
2022-10-31T19:37:22.687Z,18.05
2022-10-31T19:39:50.024Z,18.00
2022-10-31T19:42:17.578Z,17.98
2022-10-31T19:44:44.870Z,17.93
2022-10-31T19:47:12.315Z,17.93
2022-10-31T19:49:39.597Z,17.91
2022-10-31T19:52:07.245Z,17.90
2022-10-31T19:54:34.776Z,17.86
2022-10-31T19:57:02.208Z,17.83
2022-10-31T19:59:29.395Z,17.74
2022-10-31T20:01:56.990Z,17.73
2022-10-31T20:04:24.777Z,17.73
2022-10-31T20:06:52.308Z,17.70
2022-10-31T20:09:19.734Z,17.64
2022-10-31T20:11:47.622Z,17.58
2022-10-31T20:14:17.823Z,17.54
2022-10-31T20:16:46.290Z,17.51
2022-10-31T20:19:13.878Z,17.46
2022-10-31T20:21:42.171Z,17.41
2022-10-31T20:24:11.632Z,17.38
2022-10-31T20:26:41.321Z,17.31
2022-10-31T20:29:13.237Z,17.21
2022-10-31T20:31:40.681Z,17.15
2022-10-31T20:34:08.032Z,17.16
2022-10-31T20:36:36.870Z,17.14
2022-10-31T20:39:04.550Z,17.06
2022-10-31T20:41:32.361Z,16.97
2022-10-31T20:43:59.530Z,16.91
2022-10-31T20:46:27.927Z,16.83
2022-10-31T20:48:55.513Z,16.73
2022-10-31T20:51:28.187Z,16.63
2022-10-31T20:53:57.669Z,16.57
2022-10-31T20:56:28.131Z,16.55
2022-10-31T20:58:56.975Z,16.51
2022-10-31T21:01:29.027Z,16.49
2022-10-31T21:03:58.524Z,16.47
2022-10-31T21:06:26.671Z,16.42
2022-10-31T21:08:54.583Z,16.38
2022-10-31T21:11:25.335Z,16.35
2022-10-31T21:13:53.336Z,16.28
2022-10-31T21:16:31.272Z,16.18
2022-10-31T21:19:01.693Z,16.15
2022-10-31T21:21:38.535Z,16.08
2022-10-31T21:24:13.286Z,16.06
2022-10-31T21:26:46.100Z,15.99
2022-10-31T21:29:15.337Z,15.96
2022-10-31T21:31:43.853Z,15.93
2022-10-31T21:34:12.095Z,15.82
2022-10-31T21:36:39.891Z,15.74
2022-10-31T21:39:09.457Z,15.66
2022-10-31T21:41:37.133Z,15.60
2022-10-31T21:44:04.615Z,15.60
2022-10-31T21:46:33.959Z,15.56
2022-10-31T21:49:03.971Z,15.51
2022-10-31T21:51:36.935Z,15.45
2022-10-31T21:54:23.301Z,15.48
2022-10-31T21:56:51.784Z,15.39
2022-10-31T21:59:19.013Z,15.34
2022-10-31T22:01:46.686Z,15.35
2022-10-31T22:04:14.971Z,15.33
2022-10-31T22:06:43.168Z,15.30
2022-10-31T22:09:13.771Z,15.26
2022-10-31T22:11:42.589Z,15.26
2022-10-31T22:14:14.714Z,15.21
2022-10-31T22:16:42.737Z,15.18
2022-10-31T22:19:13.428Z,15.12
2022-10-31T22:21:47.507Z,15.11
2022-10-31T22:24:17.525Z,15.07
2022-10-31T22:26:45.211Z,15.05
2022-10-31T22:29:18.520Z,14.95
2022-10-31T22:31:53.232Z,14.89
2022-10-31T22:34:22.614Z,14.73
2022-10-31T22:36:50.039Z,14.70
2022-10-31T22:39:17.639Z,14.68
2022-10-31T22:41:45.015Z,14.53
2022-10-31T22:44:12.186Z,14.51
2022-10-31T22:46:40.322Z,14.36
2022-10-31T22:49:17.177Z,14.27
2022-10-31T22:51:45.276Z,14.22
2022-10-31T22:54:17.459Z,14.18
2022-10-31T22:56:45.502Z,14.16
2022-10-31T22:59:15.082Z,14.10
2022-10-31T23:01:45.621Z,14.09
2022-10-31T23:04:14.755Z,14.05
2022-10-31T23:06:42.184Z,13.90
2022-10-31T23:09:14.815Z,13.95
2022-10-31T23:11:43.134Z,13.96
2022-10-31T23:14:20.756Z,14.00
2022-10-31T23:16:51.287Z,14.02
2022-10-31T23:19:28.109Z,13.98
2022-10-31T23:22:03.123Z,13.97
2022-10-31T23:24:36.718Z,13.95
2022-10-31T23:27:15.216Z,13.85
2022-10-31T23:29:57.216Z,13.89
2022-10-31T23:32:37.261Z,13.83
2022-10-31T23:35:09.119Z,13.91
2022-10-31T23:37:39.120Z,13.86
2022-10-31T23:40:10.555Z,13.91
2022-10-31T23:42:37.894Z,13.86
2022-10-31T23:45:05.683Z,13.86
2022-10-31T23:47:33.137Z,13.81
2022-10-31T23:50:00.358Z,13.72
2022-10-31T23:52:27.821Z,13.64
2022-10-31T23:54:55.062Z,13.61
2022-10-31T23:57:22.640Z,13.44
2022-10-31T23:59:49.857Z,13.30
